sensor_id;sensor_type;location;lat;lon;timestamp;temperature;humidity
20489;DHT22;10403;54.092;12.122;2022-08-19T00:00:08;24.40;90.90
20489;DHT22;10403;54.092;12.122;2022-08-19T00:02:37;24.30;90.80
20489;DHT22;10403;54.092;12.122;2022-08-19T00:05:17;24.30;90.90
20489;DHT22;10403;54.092;12.122;2022-08-19T00:07:46;24.30;90.90
20489;DHT22;10403;54.092;12.122;2022-08-19T00:10:14;24.30;90.90
20489;DHT22;10403;54.092;12.122;2022-08-19T00:12:43;24.30;90.80
20489;DHT22;10403;54.092;12.122;2022-08-19T00:15:15;24.30;90.80
20489;DHT22;10403;54.092;12.122;2022-08-19T00:17:44;24.30;90.80
20489;DHT22;10403;54.092;12.122;2022-08-19T00:20:17;24.30;90.70
20489;DHT22;10403;54.092;12.122;2022-08-19T00:22:47;24.30;90.70
20489;DHT22;10403;54.092;12.122;2022-08-19T00:25:15;24.30;90.70
20489;DHT22;10403;54.092;12.122;2022-08-19T00:27:43;24.30;90.70
20489;DHT22;10403;54.092;12.122;2022-08-19T00:30:11;24.30;90.70
20489;DHT22;10403;54.092;12.122;2022-08-19T00:32:39;24.30;90.60
20489;DHT22;10403;54.092;12.122;2022-08-19T00:35:07;24.20;90.60
20489;DHT22;10403;54.092;12.122;2022-08-19T00:37:37;24.20;90.60
20489;DHT22;10403;54.092;12.122;2022-08-19T00:40:06;24.20;90.70
20489;DHT22;10403;54.092;12.122;2022-08-19T00:42:34;24.20;90.60
20489;DHT22;10403;54.092;12.122;2022-08-19T00:45:02;24.20;90.70
20489;DHT22;10403;54.092;12.122;2022-08-19T00:47:36;24.20;90.70
20489;DHT22;10403;54.092;12.122;2022-08-19T00:50:05;24.20;90.80
20489;DHT22;10403;54.092;12.122;2022-08-19T00:52:39;24.10;90.80
20489;DHT22;10403;54.092;12.122;2022-08-19T00:55:24;24.10;90.90
20489;DHT22;10403;54.092;12.122;2022-08-19T00:58:04;24.10;91.10
20489;DHT22;10403;54.092;12.122;2022-08-19T01:00:35;24.10;91.20
20489;DHT22;10403;54.092;12.122;2022-08-19T01:03:12;24.10;91.30
20489;DHT22;10403;54.092;12.122;2022-08-19T01:05:46;24.00;91.40
20489;DHT22;10403;54.092;12.122;2022-08-19T01:08:17;24.00;91.50
20489;DHT22;10403;54.092;12.122;2022-08-19T01:10:57;24.00;91.60
20489;DHT22;10403;54.092;12.122;2022-08-19T01:13:29;24.00;91.70
20489;DHT22;10403;54.092;12.122;2022-08-19T01:16:17;24.00;91.80
20489;DHT22;10403;54.092;12.122;2022-08-19T01:18:47;24.00;91.80
20489;DHT22;10403;54.092;12.122;2022-08-19T01:23:58;24.00;91.90
20489;DHT22;10403;54.092;12.122;2022-08-19T01:26:27;24.00;91.90
20489;DHT22;10403;54.092;12.122;2022-08-19T01:28:59;24.00;91.90
20489;DHT22;10403;54.092;12.122;2022-08-19T01:31:28;24.00;92.00
20489;DHT22;10403;54.092;12.122;2022-08-19T01:34:00;23.90;92.00
20489;DHT22;10403;54.092;12.122;2022-08-19T01:36:37;23.90;92.10
20489;DHT22;10403;54.092;12.122;2022-08-19T01:39:12;23.90;92.30
20489;DHT22;10403;54.092;12.122;2022-08-19T01:41:43;23.80;92.30
20489;DHT22;10403;54.092;12.122;2022-08-19T01:44:10;23.80;92.30
20489;DHT22;10403;54.092;12.122;2022-08-19T01:46:46;23.80;92.30
20489;DHT22;10403;54.092;12.122;2022-08-19T01:49:16;23.80;92.40
20489;DHT22;10403;54.092;12.122;2022-08-19T01:51:44;23.80;92.50
20489;DHT22;10403;54.092;12.122;2022-08-19T01:54:13;23.70;92.50
20489;DHT22;10403;54.092;12.122;2022-08-19T01:56:55;23.60;92.70
20489;DHT22;10403;54.092;12.122;2022-08-19T01:59:28;23.60;92.80
20489;DHT22;10403;54.092;12.122;2022-08-19T02:01:56;23.60;93.00
20489;DHT22;10403;54.092;12.122;2022-08-19T02:04:23;23.50;93.10
20489;DHT22;10403;54.092;12.122;2022-08-19T02:06:52;23.50;93.60
20489;DHT22;10403;54.092;12.122;2022-08-19T02:09:19;23.40;93.30
20489;DHT22;10403;54.092;12.122;2022-08-19T02:11:46;23.40;93.50
20489;DHT22;10403;54.092;12.122;2022-08-19T02:14:13;23.40;93.60
20489;DHT22;10403;54.092;12.122;2022-08-19T02:16:40;23.30;93.70
20489;DHT22;10403;54.092;12.122;2022-08-19T02:19:08;23.30;93.80
20489;DHT22;10403;54.092;12.122;2022-08-19T02:21:35;23.20;93.80
20489;DHT22;10403;54.092;12.122;2022-08-19T02:24:02;23.20;93.90
20489;DHT22;10403;54.092;12.122;2022-08-19T02:26:29;23.10;94.00
20489;DHT22;10403;54.092;12.122;2022-08-19T02:28:56;23.10;94.10
20489;DHT22;10403;54.092;12.122;2022-08-19T02:31:26;23.10;94.20
20489;DHT22;10403;54.092;12.122;2022-08-19T02:33:55;23.00;94.30
20489;DHT22;10403;54.092;12.122;2022-08-19T02:36:25;23.00;94.30
20489;DHT22;10403;54.092;12.122;2022-08-19T02:38:53;23.00;94.50
20489;DHT22;10403;54.092;12.122;2022-08-19T02:41:27;23.00;94.50
20489;DHT22;10403;54.092;12.122;2022-08-19T02:43:58;23.00;94.60
20489;DHT22;10403;54.092;12.122;2022-08-19T02:46:48;23.00;94.70
20489;DHT22;10403;54.092;12.122;2022-08-19T02:49:18;22.90;94.70
20489;DHT22;10403;54.092;12.122;2022-08-19T02:51:46;23.00;94.80
20489;DHT22;10403;54.092;12.122;2022-08-19T02:54:14;22.90;94.80
20489;DHT22;10403;54.092;12.122;2022-08-19T02:56:43;22.90;94.90
20489;DHT22;10403;54.092;12.122;2022-08-19T02:59:10;22.90;95.10
20489;DHT22;10403;54.092;12.122;2022-08-19T03:01:40;22.90;95.20
20489;DHT22;10403;54.092;12.122;2022-08-19T03:04:11;22.90;95.30
20489;DHT22;10403;54.092;12.122;2022-08-19T03:06:46;23.00;95.30
20489;DHT22;10403;54.092;12.122;2022-08-19T03:09:14;22.90;95.30
20489;DHT22;10403;54.092;12.122;2022-08-19T03:11:41;22.90;95.40
20489;DHT22;10403;54.092;12.122;2022-08-19T03:14:09;22.90;95.50
20489;DHT22;10403;54.092;12.122;2022-08-19T03:16:46;22.90;95.60
20489;DHT22;10403;54.092;12.122;2022-08-19T03:19:19;22.90;95.70
20489;DHT22;10403;54.092;12.122;2022-08-19T03:21:48;22.80;95.70
20489;DHT22;10403;54.092;12.122;2022-08-19T03:24:16;22.80;96.00
20489;DHT22;10403;54.092;12.122;2022-08-19T03:26:48;22.70;96.10
20489;DHT22;10403;54.092;12.122;2022-08-19T03:29:18;22.70;96.20
20489;DHT22;10403;54.092;12.122;2022-08-19T03:32:03;22.70;96.30
20489;DHT22;10403;54.092;12.122;2022-08-19T03:34:32;22.70;96.50
20489;DHT22;10403;54.092;12.122;2022-08-19T03:37:05;22.70;96.60
20489;DHT22;10403;54.092;12.122;2022-08-19T03:39:36;22.60;96.60
20489;DHT22;10403;54.092;12.122;2022-08-19T03:42:05;22.60;96.80
20489;DHT22;10403;54.092;12.122;2022-08-19T03:44:52;22.60;96.90
20489;DHT22;10403;54.092;12.122;2022-08-19T03:47:19;22.60;96.90
20489;DHT22;10403;54.092;12.122;2022-08-19T03:49:46;22.60;97.10
20489;DHT22;10403;54.092;12.122;2022-08-19T03:52:13;22.60;97.20
20489;DHT22;10403;54.092;12.122;2022-08-19T03:54:40;22.50;97.30
20489;DHT22;10403;54.092;12.122;2022-08-19T03:57:07;22.50;97.40
20489;DHT22;10403;54.092;12.122;2022-08-19T03:59:36;22.60;97.50
20489;DHT22;10403;54.092;12.122;2022-08-19T04:02:08;22.60;97.70
20489;DHT22;10403;54.092;12.122;2022-08-19T04:04:39;22.60;97.70
20489;DHT22;10403;54.092;12.122;2022-08-19T04:07:09;22.70;97.80
20489;DHT22;10403;54.092;12.122;2022-08-19T04:09:37;22.70;97.80
20489;DHT22;10403;54.092;12.122;2022-08-19T04:12:04;22.70;97.80
20489;DHT22;10403;54.092;12.122;2022-08-19T04:14:33;22.80;97.90
20489;DHT22;10403;54.092;12.122;2022-08-19T04:17:02;22.80;97.90
20489;DHT22;10403;54.092;12.122;2022-08-19T04:19:33;22.80;97.90
20489;DHT22;10403;54.092;12.122;2022-08-19T04:22:03;22.90;97.90
20489;DHT22;10403;54.092;12.122;2022-08-19T04:24:31;22.90;97.80
20489;DHT22;10403;54.092;12.122;2022-08-19T04:27:00;22.90;97.80
20489;DHT22;10403;54.092;12.122;2022-08-19T04:29:29;22.90;97.90
20489;DHT22;10403;54.092;12.122;2022-08-19T04:31:57;23.00;98.00
20489;DHT22;10403;54.092;12.122;2022-08-19T04:34:28;23.00;98.30
20489;DHT22;10403;54.092;12.122;2022-08-19T04:36:57;23.00;98.00
20489;DHT22;10403;54.092;12.122;2022-08-19T04:39:29;23.00;98.00
20489;DHT22;10403;54.092;12.122;2022-08-19T04:42:17;23.10;98.00
20489;DHT22;10403;54.092;12.122;2022-08-19T04:45:05;23.10;98.00
20489;DHT22;10403;54.092;12.122;2022-08-19T04:47:37;23.10;97.90
20489;DHT22;10403;54.092;12.122;2022-08-19T04:50:18;23.10;97.90
20489;DHT22;10403;54.092;12.122;2022-08-19T04:52:45;23.10;98.00
20489;DHT22;10403;54.092;12.122;2022-08-19T04:55:13;23.10;98.00
20489;DHT22;10403;54.092;12.122;2022-08-19T04:57:41;23.10;98.00
20489;DHT22;10403;54.092;12.122;2022-08-19T05:00:09;23.10;98.00
20489;DHT22;10403;54.092;12.122;2022-08-19T05:02:38;23.20;98.00
20489;DHT22;10403;54.092;12.122;2022-08-19T05:05:06;23.20;98.10
20489;DHT22;10403;54.092;12.122;2022-08-19T05:07:33;23.20;98.10
20489;DHT22;10403;54.092;12.122;2022-08-19T05:10:03;23.20;98.10
20489;DHT22;10403;54.092;12.122;2022-08-19T05:12:32;23.20;98.10
20489;DHT22;10403;54.092;12.122;2022-08-19T05:14:59;23.20;98.10
20489;DHT22;10403;54.092;12.122;2022-08-19T05:17:27;23.20;98.20
20489;DHT22;10403;54.092;12.122;2022-08-19T05:20:03;23.30;98.20
20489;DHT22;10403;54.092;12.122;2022-08-19T05:22:50;23.30;98.20
20489;DHT22;10403;54.092;12.122;2022-08-19T05:25:20;23.40;98.20
20489;DHT22;10403;54.092;12.122;2022-08-19T05:27:48;23.40;98.20
20489;DHT22;10403;54.092;12.122;2022-08-19T05:30:16;23.50;98.10
20489;DHT22;10403;54.092;12.122;2022-08-19T05:32:44;23.50;98.00
20489;DHT22;10403;54.092;12.122;2022-08-19T05:35:11;23.50;98.00
20489;DHT22;10403;54.092;12.122;2022-08-19T05:37:39;23.60;98.00
20489;DHT22;10403;54.092;12.122;2022-08-19T05:40:08;23.60;97.90
20489;DHT22;10403;54.092;12.122;2022-08-19T05:42:37;23.60;97.80
20489;DHT22;10403;54.092;12.122;2022-08-19T05:45:05;23.70;97.70
20489;DHT22;10403;54.092;12.122;2022-08-19T05:47:34;23.60;97.70
20489;DHT22;10403;54.092;12.122;2022-08-19T05:50:08;23.70;97.60
20489;DHT22;10403;54.092;12.122;2022-08-19T05:52:37;23.70;97.50
20489;DHT22;10403;54.092;12.122;2022-08-19T05:55:09;23.70;97.40
20489;DHT22;10403;54.092;12.122;2022-08-19T05:57:37;23.70;97.20
20489;DHT22;10403;54.092;12.122;2022-08-19T06:00:06;23.60;97.20
20489;DHT22;10403;54.092;12.122;2022-08-19T06:02:38;23.60;97.20
20489;DHT22;10403;54.092;12.122;2022-08-19T06:05:07;23.60;97.20
20489;DHT22;10403;54.092;12.122;2022-08-19T06:07:36;23.60;97.20
20489;DHT22;10403;54.092;12.122;2022-08-19T06:10:07;23.60;97.10
20489;DHT22;10403;54.092;12.122;2022-08-19T06:12:37;23.70;97.10
20489;DHT22;10403;54.092;12.122;2022-08-19T06:15:09;23.70;97.00
20489;DHT22;10403;54.092;12.122;2022-08-19T06:17:38;23.70;97.00
20489;DHT22;10403;54.092;12.122;2022-08-19T06:20:08;23.70;96.90
20489;DHT22;10403;54.092;12.122;2022-08-19T06:22:44;23.80;96.90
20489;DHT22;10403;54.092;12.122;2022-08-19T06:25:16;23.80;96.80
20489;DHT22;10403;54.092;12.122;2022-08-19T06:27:44;23.80;96.80
20489;DHT22;10403;54.092;12.122;2022-08-19T06:30:31;23.70;96.60
20489;DHT22;10403;54.092;12.122;2022-08-19T06:32:59;23.70;96.70
20489;DHT22;10403;54.092;12.122;2022-08-19T06:35:26;23.80;96.70
20489;DHT22;10403;54.092;12.122;2022-08-19T06:37:53;23.70;96.60
20489;DHT22;10403;54.092;12.122;2022-08-19T06:40:21;23.70;96.70
20489;DHT22;10403;54.092;12.122;2022-08-19T06:42:48;23.70;96.70
20489;DHT22;10403;54.092;12.122;2022-08-19T06:45:22;23.60;96.70
20489;DHT22;10403;54.092;12.122;2022-08-19T06:47:52;23.60;96.90
20489;DHT22;10403;54.092;12.122;2022-08-19T06:50:21;23.60;97.10
20489;DHT22;10403;54.092;12.122;2022-08-19T06:52:50;23.60;97.10
20489;DHT22;10403;54.092;12.122;2022-08-19T06:55:19;23.60;97.10
20489;DHT22;10403;54.092;12.122;2022-08-19T06:57:46;23.60;97.20
20489;DHT22;10403;54.092;12.122;2022-08-19T07:00:15;23.60;97.20
20489;DHT22;10403;54.092;12.122;2022-08-19T07:02:43;23.60;97.20
20489;DHT22;10403;54.092;12.122;2022-08-19T07:05:23;23.50;97.30
20489;DHT22;10403;54.092;12.122;2022-08-19T07:07:50;23.50;97.30
20489;DHT22;10403;54.092;12.122;2022-08-19T07:10:17;23.40;97.40
20489;DHT22;10403;54.092;12.122;2022-08-19T07:12:46;23.40;97.50
20489;DHT22;10403;54.092;12.122;2022-08-19T07:15:14;23.40;97.70
20489;DHT22;10403;54.092;12.122;2022-08-19T07:17:44;23.30;97.70
20489;DHT22;10403;54.092;12.122;2022-08-19T07:20:15;23.40;97.80
20489;DHT22;10403;54.092;12.122;2022-08-19T07:22:44;23.40;97.90
20489;DHT22;10403;54.092;12.122;2022-08-19T07:25:12;23.40;98.00
20489;DHT22;10403;54.092;12.122;2022-08-19T07:27:39;23.40;98.10
20489;DHT22;10403;54.092;12.122;2022-08-19T07:30:12;23.40;98.20
20489;DHT22;10403;54.092;12.122;2022-08-19T07:32:40;23.40;98.20
20489;DHT22;10403;54.092;12.122;2022-08-19T07:35:09;23.40;98.10
20489;DHT22;10403;54.092;12.122;2022-08-19T07:37:37;23.30;98.00
20489;DHT22;10403;54.092;12.122;2022-08-19T07:40:07;23.20;98.00
20489;DHT22;10403;54.092;12.122;2022-08-19T07:42:35;23.20;98.30
20489;DHT22;10403;54.092;12.122;2022-08-19T07:45:03;23.10;98.40
20489;DHT22;10403;54.092;12.122;2022-08-19T07:47:32;23.20;98.60
20489;DHT22;10403;54.092;12.122;2022-08-19T07:50:17;23.20;98.60
20489;DHT22;10403;54.092;12.122;2022-08-19T07:52:48;23.20;98.60
20489;DHT22;10403;54.092;12.122;2022-08-19T07:55:20;23.20;98.70
20489;DHT22;10403;54.092;12.122;2022-08-19T07:58:11;23.20;98.90
20489;DHT22;10403;54.092;12.122;2022-08-19T08:00:41;23.20;99.00
20489;DHT22;10403;54.092;12.122;2022-08-19T08:03:09;23.20;99.00
20489;DHT22;10403;54.092;12.122;2022-08-19T08:05:36;23.20;98.90
20489;DHT22;10403;54.092;12.122;2022-08-19T08:08:22;23.20;99.10
20489;DHT22;10403;54.092;12.122;2022-08-19T08:11:12;23.20;99.10
20489;DHT22;10403;54.092;12.122;2022-08-19T08:13:41;23.20;99.10
20489;DHT22;10403;54.092;12.122;2022-08-19T08:16:09;23.20;99.10
20489;DHT22;10403;54.092;12.122;2022-08-19T08:18:40;23.20;99.10
20489;DHT22;10403;54.092;12.122;2022-08-19T08:21:16;23.20;99.20
20489;DHT22;10403;54.092;12.122;2022-08-19T08:23:43;23.20;99.30
20489;DHT22;10403;54.092;12.122;2022-08-19T08:26:10;23.20;99.40
20489;DHT22;10403;54.092;12.122;2022-08-19T08:28:38;23.30;99.20
20489;DHT22;10403;54.092;12.122;2022-08-19T08:31:06;23.20;99.10
20489;DHT22;10403;54.092;12.122;2022-08-19T08:33:35;23.20;99.20
20489;DHT22;10403;54.092;12.122;2022-08-19T08:36:06;23.20;99.10
20489;DHT22;10403;54.092;12.122;2022-08-19T08:38:34;23.20;99.20
20489;DHT22;10403;54.092;12.122;2022-08-19T08:44:17;23.30;99.40
20489;DHT22;10403;54.092;12.122;2022-08-19T08:47:11;23.30;99.30
20489;DHT22;10403;54.092;12.122;2022-08-19T08:49:58;23.20;99.20
20489;DHT22;10403;54.092;12.122;2022-08-19T08:52:36;23.20;99.30
20489;DHT22;10403;54.092;12.122;2022-08-19T08:55:20;23.20;99.30
20489;DHT22;10403;54.092;12.122;2022-08-19T08:58:06;23.20;99.40
20489;DHT22;10403;54.092;12.122;2022-08-19T09:00:48;23.20;99.40
20489;DHT22;10403;54.092;12.122;2022-08-19T09:03:23;23.30;99.60
20489;DHT22;10403;54.092;12.122;2022-08-19T09:06:26;23.30;99.60
20489;DHT22;10403;54.092;12.122;2022-08-19T09:12:19;23.20;99.90
20489;DHT22;10403;54.092;12.122;2022-08-19T09:15:02;23.20;99.70
20489;DHT22;10403;54.092;12.122;2022-08-19T09:17:31;23.30;99.90
20489;DHT22;10403;54.092;12.122;2022-08-19T09:20:21;23.30;99.90
20489;DHT22;10403;54.092;12.122;2022-08-19T09:22:52;23.30;99.90
20489;DHT22;10403;54.092;12.122;2022-08-19T09:25:21;23.20;99.80
20489;DHT22;10403;54.092;12.122;2022-08-19T09:27:54;23.20;99.90
20489;DHT22;10403;54.092;12.122;2022-08-19T09:30:34;23.20;99.90
20489;DHT22;10403;54.092;12.122;2022-08-19T09:33:07;23.20;99.90
20489;DHT22;10403;54.092;12.122;2022-08-19T09:35:34;23.20;99.90
20489;DHT22;10403;54.092;12.122;2022-08-19T09:38:20;23.20;99.90
20489;DHT22;10403;54.092;12.122;2022-08-19T09:40:48;23.10;99.90
20489;DHT22;10403;54.092;12.122;2022-08-19T09:43:17;23.10;99.90
20489;DHT22;10403;54.092;12.122;2022-08-19T09:46:00;23.20;99.90
20489;DHT22;10403;54.092;12.122;2022-08-19T09:48:29;23.20;99.90
20489;DHT22;10403;54.092;12.122;2022-08-19T09:51:02;23.20;99.90
20489;DHT22;10403;54.092;12.122;2022-08-19T09:53:38;23.30;99.90
20489;DHT22;10403;54.092;12.122;2022-08-19T09:56:06;23.30;99.90
20489;DHT22;10403;54.092;12.122;2022-08-19T09:58:35;23.30;99.90
20489;DHT22;10403;54.092;12.122;2022-08-19T10:01:05;23.40;99.90
20489;DHT22;10403;54.092;12.122;2022-08-19T10:03:35;23.40;99.90
20489;DHT22;10403;54.092;12.122;2022-08-19T10:06:08;23.40;99.90
20489;DHT22;10403;54.092;12.122;2022-08-19T10:08:43;23.40;99.90
20489;DHT22;10403;54.092;12.122;2022-08-19T10:11:16;23.30;99.90
20489;DHT22;10403;54.092;12.122;2022-08-19T10:14:01;23.30;99.90
20489;DHT22;10403;54.092;12.122;2022-08-19T10:16:29;23.40;99.90
20489;DHT22;10403;54.092;12.122;2022-08-19T10:19:05;23.40;99.90
20489;DHT22;10403;54.092;12.122;2022-08-19T10:21:33;23.30;99.90
20489;DHT22;10403;54.092;12.122;2022-08-19T10:24:03;23.30;99.90
20489;DHT22;10403;54.092;12.122;2022-08-19T10:26:34;23.30;99.90
20489;DHT22;10403;54.092;12.122;2022-08-19T10:29:04;23.30;99.90
20489;DHT22;10403;54.092;12.122;2022-08-19T10:31:35;23.30;99.90
20489;DHT22;10403;54.092;12.122;2022-08-19T10:34:22;23.30;99.90
20489;DHT22;10403;54.092;12.122;2022-08-19T10:36:55;23.30;99.90
20489;DHT22;10403;54.092;12.122;2022-08-19T10:39:29;23.40;99.90
20489;DHT22;10403;54.092;12.122;2022-08-19T10:42:08;23.40;99.90
20489;DHT22;10403;54.092;12.122;2022-08-19T10:44:40;23.30;99.90
20489;DHT22;10403;54.092;12.122;2022-08-19T10:47:08;23.40;99.90
20489;DHT22;10403;54.092;12.122;2022-08-19T10:49:52;23.40;99.90
20489;DHT22;10403;54.092;12.122;2022-08-19T10:52:48;23.40;99.90
20489;DHT22;10403;54.092;12.122;2022-08-19T10:55:19;23.50;99.90
20489;DHT22;10403;54.092;12.122;2022-08-19T10:58:12;23.50;99.90
20489;DHT22;10403;54.092;12.122;2022-08-19T11:00:54;23.50;99.90
20489;DHT22;10403;54.092;12.122;2022-08-19T11:03:24;23.60;99.90
20489;DHT22;10403;54.092;12.122;2022-08-19T11:06:04;23.60;99.90
20489;DHT22;10403;54.092;12.122;2022-08-19T11:08:35;23.60;99.90
20489;DHT22;10403;54.092;12.122;2022-08-19T11:11:06;23.60;99.90
20489;DHT22;10403;54.092;12.122;2022-08-19T11:13:36;23.60;99.90
20489;DHT22;10403;54.092;12.122;2022-08-19T11:16:08;23.60;99.90
20489;DHT22;10403;54.092;12.122;2022-08-19T11:18:47;23.60;99.90
20489;DHT22;10403;54.092;12.122;2022-08-19T11:21:22;23.50;99.90
20489;DHT22;10403;54.092;12.122;2022-08-19T11:23:54;23.50;99.90
20489;DHT22;10403;54.092;12.122;2022-08-19T11:26:23;23.50;99.90
20489;DHT22;10403;54.092;12.122;2022-08-19T11:28:52;23.50;99.90
20489;DHT22;10403;54.092;12.122;2022-08-19T11:31:23;23.50;99.90
20489;DHT22;10403;54.092;12.122;2022-08-19T11:34:01;23.40;99.90
20489;DHT22;10403;54.092;12.122;2022-08-19T11:36:31;23.50;99.90
20489;DHT22;10403;54.092;12.122;2022-08-19T11:39:06;23.40;99.90
20489;DHT22;10403;54.092;12.122;2022-08-19T11:41:34;23.40;99.90
20489;DHT22;10403;54.092;12.122;2022-08-19T11:44:03;23.40;99.90
20489;DHT22;10403;54.092;12.122;2022-08-19T11:46:31;23.40;99.90
20489;DHT22;10403;54.092;12.122;2022-08-19T11:48:59;23.40;99.90
20489;DHT22;10403;54.092;12.122;2022-08-19T11:51:27;23.40;99.90
20489;DHT22;10403;54.092;12.122;2022-08-19T11:53:56;23.40;99.90
20489;DHT22;10403;54.092;12.122;2022-08-19T11:56:25;23.40;99.90
20489;DHT22;10403;54.092;12.122;2022-08-19T11:58:54;23.40;99.90
20489;DHT22;10403;54.092;12.122;2022-08-19T12:01:27;23.40;99.90
20489;DHT22;10403;54.092;12.122;2022-08-19T12:03:55;23.40;99.90
20489;DHT22;10403;54.092;12.122;2022-08-19T12:06:31;23.30;99.90
20489;DHT22;10403;54.092;12.122;2022-08-19T12:09:03;23.30;99.90
20489;DHT22;10403;54.092;12.122;2022-08-19T12:11:33;23.30;99.90
20489;DHT22;10403;54.092;12.122;2022-08-19T12:14:00;23.20;99.90
20489;DHT22;10403;54.092;12.122;2022-08-19T12:16:29;23.20;99.90
20489;DHT22;10403;54.092;12.122;2022-08-19T12:18:59;23.20;99.90
20489;DHT22;10403;54.092;12.122;2022-08-19T12:21:32;23.20;99.90
20489;DHT22;10403;54.092;12.122;2022-08-19T12:24:03;23.20;99.90
20489;DHT22;10403;54.092;12.122;2022-08-19T12:26:32;23.20;99.90
20489;DHT22;10403;54.092;12.122;2022-08-19T12:29:04;23.20;99.90
20489;DHT22;10403;54.092;12.122;2022-08-19T12:31:31;23.20;99.90
20489;DHT22;10403;54.092;12.122;2022-08-19T12:33:59;23.20;99.90
20489;DHT22;10403;54.092;12.122;2022-08-19T12:36:27;23.10;99.90
20489;DHT22;10403;54.092;12.122;2022-08-19T12:38:54;23.10;99.90
20489;DHT22;10403;54.092;12.122;2022-08-19T12:41:21;23.20;99.90
20489;DHT22;10403;54.092;12.122;2022-08-19T12:43:49;23.20;99.90
20489;DHT22;10403;54.092;12.122;2022-08-19T12:46:18;23.20;99.90
20489;DHT22;10403;54.092;12.122;2022-08-19T12:48:51;23.10;99.90
20489;DHT22;10403;54.092;12.122;2022-08-19T12:51:21;23.10;99.90
20489;DHT22;10403;54.092;12.122;2022-08-19T12:53:48;23.10;99.90
20489;DHT22;10403;54.092;12.122;2022-08-19T12:56:16;23.00;99.90
20489;DHT22;10403;54.092;12.122;2022-08-19T12:58:49;22.90;99.90
20489;DHT22;10403;54.092;12.122;2022-08-19T13:01:19;22.90;99.90
20489;DHT22;10403;54.092;12.122;2022-08-19T13:03:49;22.90;99.90
20489;DHT22;10403;54.092;12.122;2022-08-19T13:06:20;22.90;99.90
20489;DHT22;10403;54.092;12.122;2022-08-19T13:08:48;22.90;99.90
20489;DHT22;10403;54.092;12.122;2022-08-19T13:11:18;22.90;99.90
20489;DHT22;10403;54.092;12.122;2022-08-19T13:13:48;23.00;99.90
20489;DHT22;10403;54.092;12.122;2022-08-19T13:16:18;23.00;99.90
20489;DHT22;10403;54.092;12.122;2022-08-19T13:18:47;23.10;99.90
20489;DHT22;10403;54.092;12.122;2022-08-19T13:21:15;23.10;99.90
20489;DHT22;10403;54.092;12.122;2022-08-19T13:23:46;23.10;99.90
20489;DHT22;10403;54.092;12.122;2022-08-19T13:26:14;23.10;99.90
20489;DHT22;10403;54.092;12.122;2022-08-19T13:28:44;23.10;99.90
20489;DHT22;10403;54.092;12.122;2022-08-19T13:31:32;23.20;99.90
20489;DHT22;10403;54.092;12.122;2022-08-19T13:34:27;23.10;99.90
20489;DHT22;10403;54.092;12.122;2022-08-19T13:37:01;23.10;99.90
20489;DHT22;10403;54.092;12.122;2022-08-19T13:39:33;23.10;99.90
20489;DHT22;10403;54.092;12.122;2022-08-19T13:42:02;23.10;99.90
20489;DHT22;10403;54.092;12.122;2022-08-19T13:44:31;23.20;99.90
20489;DHT22;10403;54.092;12.122;2022-08-19T13:47:03;23.20;99.90
20489;DHT22;10403;54.092;12.122;2022-08-19T13:49:35;23.30;99.90
20489;DHT22;10403;54.092;12.122;2022-08-19T13:52:04;23.40;99.90
20489;DHT22;10403;54.092;12.122;2022-08-19T13:54:32;23.40;99.90
20489;DHT22;10403;54.092;12.122;2022-08-19T13:56:59;23.30;99.90
20489;DHT22;10403;54.092;12.122;2022-08-19T13:59:26;23.30;99.90
20489;DHT22;10403;54.092;12.122;2022-08-19T14:01:58;23.30;99.90
20489;DHT22;10403;54.092;12.122;2022-08-19T14:04:26;23.30;99.90
20489;DHT22;10403;54.092;12.122;2022-08-19T14:06:54;23.20;99.90
20489;DHT22;10403;54.092;12.122;2022-08-19T14:09:21;23.20;99.90
20489;DHT22;10403;54.092;12.122;2022-08-19T14:11:48;23.20;99.90
20489;DHT22;10403;54.092;12.122;2022-08-19T14:14:17;23.20;99.90
20489;DHT22;10403;54.092;12.122;2022-08-19T14:16:44;23.20;99.90
20489;DHT22;10403;54.092;12.122;2022-08-19T14:19:11;23.20;99.90
20489;DHT22;10403;54.092;12.122;2022-08-19T14:21:38;23.20;99.90
20489;DHT22;10403;54.092;12.122;2022-08-19T14:24:08;23.20;99.90
20489;DHT22;10403;54.092;12.122;2022-08-19T14:26:36;23.20;99.90
20489;DHT22;10403;54.092;12.122;2022-08-19T14:29:03;23.20;99.90
20489;DHT22;10403;54.092;12.122;2022-08-19T14:31:30;23.20;99.90
20489;DHT22;10403;54.092;12.122;2022-08-19T14:33:57;23.20;99.90
20489;DHT22;10403;54.092;12.122;2022-08-19T14:36:24;23.20;99.90
20489;DHT22;10403;54.092;12.122;2022-08-19T14:38:51;23.20;99.90
20489;DHT22;10403;54.092;12.122;2022-08-19T14:41:21;23.30;99.90
20489;DHT22;10403;54.092;12.122;2022-08-19T14:43:52;23.30;99.90
20489;DHT22;10403;54.092;12.122;2022-08-19T14:46:22;23.30;99.90
20489;DHT22;10403;54.092;12.122;2022-08-19T14:48:55;23.30;99.90
20489;DHT22;10403;54.092;12.122;2022-08-19T14:51:25;23.40;99.90
20489;DHT22;10403;54.092;12.122;2022-08-19T14:53:56;23.40;99.90
20489;DHT22;10403;54.092;12.122;2022-08-19T14:56:27;23.90;99.90
20489;DHT22;10403;54.092;12.122;2022-08-19T14:58:56;23.40;99.90
20489;DHT22;10403;54.092;12.122;2022-08-19T15:01:27;23.40;99.90
20489;DHT22;10403;54.092;12.122;2022-08-19T15:03:54;23.40;99.90
20489;DHT22;10403;54.092;12.122;2022-08-19T15:06:25;23.40;99.90
20489;DHT22;10403;54.092;12.122;2022-08-19T15:08:54;23.40;99.90
20489;DHT22;10403;54.092;12.122;2022-08-19T15:11:27;23.40;99.90
20489;DHT22;10403;54.092;12.122;2022-08-19T15:13:55;23.30;99.90
20489;DHT22;10403;54.092;12.122;2022-08-19T15:16:24;23.30;99.90
20489;DHT22;10403;54.092;12.122;2022-08-19T15:18:54;23.30;99.90
20489;DHT22;10403;54.092;12.122;2022-08-19T15:21:24;23.20;99.90
20489;DHT22;10403;54.092;12.122;2022-08-19T15:23:55;23.20;99.90
20489;DHT22;10403;54.092;12.122;2022-08-19T15:26:23;23.20;99.90
20489;DHT22;10403;54.092;12.122;2022-08-19T15:28:54;23.20;99.90
20489;DHT22;10403;54.092;12.122;2022-08-19T15:31:21;23.20;99.90
20489;DHT22;10403;54.092;12.122;2022-08-19T15:33:56;23.10;99.90
20489;DHT22;10403;54.092;12.122;2022-08-19T15:36:24;23.10;99.90
20489;DHT22;10403;54.092;12.122;2022-08-19T15:38:53;23.10;99.90
20489;DHT22;10403;54.092;12.122;2022-08-19T15:41:27;23.10;99.90
20489;DHT22;10403;54.092;12.122;2022-08-19T15:44:00;23.10;99.90
20489;DHT22;10403;54.092;12.122;2022-08-19T15:46:36;23.10;99.90
20489;DHT22;10403;54.092;12.122;2022-08-19T15:49:05;23.00;99.90